Time;durP1;ratioP1;P1;durP2;ratioP2;P2;SDS_P1;SDS_P2;PMS_P1;PMS_P2;Temp;Humidity;BMP_temperature;BMP_pressure;BME280_temperature;BME280_humidity;BME280_pressure;Samples;Min_cycle;Max_cycle;Signal;HPM_P1;HPM_P2
2022/09/22 00:02:05;;;;;;;27.13;17.05;;;9.60;1.00;;;;;;5034173;28;20190;-89
2022/09/22 00:04:34;;;;;;;27.50;17.08;;;9.60;1.00;;;;;;5034224;28;20229;-89
2022/09/22 00:07:01;;;;;;;29.23;17.23;;;9.60;1.00;;;;;;5034139;28;20201;-89
2022/09/22 00:09:28;;;;;;;45.25;21.08;;;9.60;1.00;;;;;;5034398;28;20193;-89
2022/09/22 00:11:55;;;;;;;45.97;21.47;;;9.60;1.00;;;;;;5034169;28;20236;-88
2022/09/22 00:14:24;;;;;;;40.23;20.07;;;9.70;1.00;;;;;;5034164;28;20209;-89
2022/09/22 00:16:53;;;;;;;41.70;20.47;;;9.60;1.00;;;;;;5033981;28;20251;-90
2022/09/22 00:19:22;;;;;;;41.80;20.70;;;9.60;1.00;;;;;;5033814;28;20251;-90
2022/09/22 00:21:51;;;;;;;41.63;20.60;;;9.70;1.00;;;;;;5033833;28;20188;-89
2022/09/22 00:24:21;;;;;;;39.87;20.10;;;9.70;1.00;;;;;;5033973;28;20225;-90
2022/09/22 00:26:48;;;;;;;39.03;19.80;;;9.70;1.00;;;;;;5034310;28;20288;-88
2022/09/22 00:29:16;;;;;;;39.60;19.97;;;9.70;1.00;;;;;;5033472;28;20225;-89
2022/09/22 00:31:45;;;;;;;39.10;19.90;;;9.70;1.00;;;;;;5033709;28;20703;-89
2022/09/22 00:34:15;;;;;;;38.30;19.70;;;9.70;1.00;;;;;;5033339;28;20673;-89
2022/09/22 00:36:42;;;;;;;38.23;19.67;;;9.70;1.00;;;;;;5033419;28;20189;-88
2022/09/22 00:39:11;;;;;;;37.93;19.70;;;9.70;1.00;;;;;;5033194;28;20280;-88
2022/09/22 00:41:41;;;;;;;37.37;19.37;;;9.70;1.00;;;;;;5033642;28;20201;-87
2022/09/22 00:44:39;;;;;;;37.97;19.73;;;9.60;1.00;;;;;;5033618;28;20197;-88
2022/09/22 00:47:18;;;;;;;39.97;20.13;;;9.60;1.00;;;;;;4972788;28;20203;-90
2022/09/22 00:49:51;;;;;;;40.80;20.10;;;9.60;1.00;;;;;;5024476;28;20205;-90
2022/09/22 00:52:22;;;;;;;39.67;20.00;;;9.50;1.00;;;;;;5033199;28;20189;-88
2022/09/22 00:54:54;;;;;;;38.23;19.60;;;9.40;1.00;;;;;;5033497;28;20619;-89
2022/09/22 00:57:27;;;;;;;39.33;19.80;;;9.30;1.00;;;;;;5033017;28;20520;-89
2022/09/22 00:59:55;;;;;;;40.00;19.93;;;9.20;1.00;;;;;;5033341;28;20251;-90
2022/09/22 01:02:22;;;;;;;40.63;20.20;;;9.20;1.00;;;;;;5033303;28;20200;-89
2022/09/22 01:04:51;;;;;;;39.87;19.87;;;9.10;1.00;;;;;;5032857;28;20196;-88
2022/09/22 01:07:20;;;;;;;39.63;19.87;;;9.00;1.00;;;;;;5033065;28;20224;-89
2022/09/22 01:09:47;;;;;;;40.60;20.20;;;8.90;1.00;;;;;;5033210;28;20193;-88
2022/09/22 01:12:15;;;;;;;39.67;19.83;;;8.80;1.00;;;;;;5033092;28;20205;-89
2022/09/22 01:14:54;;;;;;;37.67;19.10;;;8.70;1.00;;;;;;5032689;28;20646;-88
2022/09/22 01:17:32;;;;;;;40.73;20.20;;;8.70;1.00;;;;;;5033034;28;20184;-89
2022/09/22 01:20:41;;;;;;;41.60;20.40;;;8.60;1.00;;;;;;5032723;28;20205;-88
2022/09/22 01:23:47;;;;;;;42.50;20.70;;;8.50;1.00;;;;;;5032394;28;20545;-89
2022/09/22 01:26:39;;;;;;;38.67;19.57;;;8.40;1.00;;;;;;4997569;28;20208;-88
2022/09/22 01:29:38;;;;;;;36.13;18.97;;;8.20;1.00;;;;;;5025753;28;20274;-88
2022/09/22 01:32:10;;;;;;;;;;;8.10;1.00;;;;;;5033078;28;20190;-89
2022/09/22 01:34:44;;;;;;;;;;;8.00;1.00;;;;;;5033070;28;20433;-88
2022/09/22 01:37:17;;;;;;;29.02;17.02;;;7.90;1.00;;;;;;5031435;28;20900;-88
2022/09/22 01:39:45;;;;;;;;;;;7.90;1.00;;;;;;5032650;28;20231;-88
2022/09/22 01:42:15;;;;;;;;;;;7.80;1.00;;;;;;5032903;28;20267;-88
2022/09/22 01:44:47;;;;;;;34.67;18.75;;;7.80;1.00;;;;;;5031743;28;20906;-88
2022/09/22 01:47:21;;;;;;;20.45;15.75;;;7.80;1.00;;;;;;5036716;28;20576;-88
2022/09/22 01:49:52;;;;;;;30.38;16.52;;;7.70;1.00;;;;;;5036277;28;20208;-87
2022/09/22 01:52:22;;;;;;;37.40;19.43;;;7.60;1.00;;;;;;5036206;28;20235;-88
2022/09/22 01:54:56;;;;;;;34.17;18.47;;;7.60;1.00;;;;;;5036063;28;20196;-87
2022/09/22 01:57:28;;;;;;;31.50;18.03;;;7.60;1.00;;;;;;5036053;28;20700;-88
2022/09/22 01:59:59;;;;;;;28.93;16.97;;;7.50;1.00;;;;;;5036346;28;20247;-87
2022/09/22 02:02:32;;;;;;;29.90;17.47;;;7.40;1.00;;;;;;5036137;28;20192;-88
2022/09/22 02:05:04;;;;;;;28.33;16.80;;;7.40;1.00;;;;;;5036098;28;20312;-88
2022/09/22 02:07:35;;;;;;;11.57;10.37;;;7.30;1.00;;;;;;5035938;28;20187;-88
2022/09/22 02:10:05;;;;;;;;;;;7.30;1.00;;;;;;5036230;28;20694;-88
2022/09/22 02:12:32;;;;;;;19.95;14.50;;;7.20;1.00;;;;;;5034746;28;20426;-87
2022/09/22 02:14:59;;;;;;;;;;;7.20;1.00;;;;;;5036437;28;20243;-87
2022/09/22 02:17:26;;;;;;;;;;;7.20;1.00;;;;;;5036120;28;20365;-88
2022/09/22 02:19:55;;;;;;;24.05;16.13;;;7.10;1.00;;;;;;5035262;28;20418;-87
2022/09/22 02:22:21;;;;;;;;;;;7.10;1.00;;;;;;5036302;28;20193;-88
2022/09/22 02:24:48;;;;;;;17.70;14.10;;;7.00;1.00;;;;;;5035399;28;20899;-87
2022/09/22 02:27:19;;;;;;;;;;;7.00;1.00;;;;;;5036155;28;20201;-88
2022/09/22 02:29:50;;;;;;;27.40;16.73;;;6.90;1.00;;;;;;5034787;28;20442;-87
2022/09/22 02:32:17;;;;;;;;;;;6.80;1.00;;;;;;5036013;28;20193;-87
2022/09/22 02:34:45;;;;;;;27.30;16.57;;;;;;;;;;5034185;28;20422;-88
2022/09/22 02:37:21;;;;;;;17.65;14.52;;;6.70;1.00;;;;;;5035811;28;20283;-88
2022/09/22 02:39:53;;;;;;;;;;;6.70;1.00;;;;;;5035671;28;20612;-88
2022/09/22 02:42:27;;;;;;;34.53;18.13;;;6.60;1.00;;;;;;5034259;28;20423;-87
2022/09/22 02:45:00;;;;;;;31.05;18.10;;;6.60;1.00;;;;;;5035785;28;20235;-87
2022/09/22 02:47:32;;;;;;;36.33;18.97;;;6.50;1.00;;;;;;5035443;28;20570;-88
2022/09/22 02:50:00;;;;;;;19.13;15.75;;;6.50;1.00;;;;;;5035598;28;20233;-87
2022/09/22 02:52:29;;;;;;;23.08;15.70;;;;;;;;;;5034963;28;20632;-87
2022/09/22 02:54:56;;;;;;;31.90;18.53;;;6.30;1.00;;;;;;5035564;28;20255;-86
2022/09/22 02:57:23;;;;;;;;;;;6.30;1.00;;;;;;5035546;28;20267;-87
2022/09/22 02:59:49;;;;;;;;;;;6.20;1.00;;;;;;5035133;28;20425;-87
2022/09/22 03:02:16;;;;;;;;;;;6.20;1.00;;;;;;5035105;28;20042;-88
2022/09/22 03:04:43;;;;;;;31.85;17.42;;;;;;;;;;5033972;28;20422;-87
2022/09/22 03:07:11;;;;;;;;;;;6.10;1.00;;;;;;5035274;28;20732;-87
2022/09/22 03:09:39;;;;;;;;;;;6.10;1.00;;;;;;5035145;28;20280;-87
2022/09/22 03:12:06;;;;;;;;;;;6.00;1.00;;;;;;5035115;28;19925;-86
2022/09/22 03:14:33;;;;;;;31.77;17.55;;;6.10;1.00;;;;;;5034134;28;20898;-86
2022/09/22 03:17:00;;;;;;;;;;;6.10;1.00;;;;;;5018848;28;20252;-86
2022/09/22 03:19:27;;;;;;;;;;;6.00;1.00;;;;;;5015301;28;19928;-86
2022/09/22 03:21:54;;;;;;;;;;;6.10;1.00;;;;;;5019414;28;19921;-86
2022/09/22 03:24:20;;;;;;;;;;;6.10;1.00;;;;;;5016769;28;19921;-87
2022/09/22 03:26:48;;;;;;;;;;;6.10;1.00;;;;;;5025945;28;20370;-86
2022/09/22 03:29:15;;;;;;;;;;;6.10;1.00;;;;;;5020268;28;19929;-86
2022/09/22 03:31:42;;;;;;;31.38;17.30;;;6.20;1.00;;;;;;5026200;28;20430;-86
2022/09/22 03:34:09;;;;;;;;;;;6.20;1.00;;;;;;5020360;28;20224;-86
2022/09/22 03:36:36;;;;;;;;;;;6.20;1.00;;;;;;5030356;28;20333;-86
2022/09/22 03:39:03;;;;;;;31.13;17.30;;;6.20;1.00;;;;;;5015857;28;20428;-86
2022/09/22 03:41:30;;;;;;;;;;;6.10;1.00;;;;;;5024145;28;20264;-86
2022/09/22 03:43:59;;;;;;;32.13;17.60;;;6.10;1.00;;;;;;5012732;28;20417;-86
2022/09/22 03:46:26;;;;;;;;;;;6.10;1.00;;;;;;5014591;28;20252;-86
2022/09/22 03:48:53;;;;;;;;;;;6.00;1.00;;;;;;5014658;28;19974;-85
2022/09/22 03:51:20;;;;;;;;;;;6.00;1.00;;;;;;5022508;28;20409;-86
2022/09/22 03:53:46;;;;;;;;;;;5.90;1.00;;;;;;5034046;28;19925;-86
2022/09/22 03:56:14;;;;;;;;;;;5.90;1.00;;;;;;5034510;28;19921;-86
2022/09/22 03:58:41;;;;;;;;;;;5.90;1.00;;;;;;5034546;28;19925;-86
2022/09/22 04:01:10;;;;;;;31.23;17.23;;;5.90;1.00;;;;;;5032801;28;20875;-85
2022/09/22 04:03:37;;;;;;;;;;;5.80;1.00;;;;;;5034020;28;20232;-85
2022/09/22 04:06:04;;;;;;;;;;;5.80;1.00;;;;;;5033848;28;19925;-85
2022/09/22 04:08:31;;;;;;;;;;;5.80;1.00;;;;;;5033491;28;19991;-85
2022/09/22 04:10:59;;;;;;;;;;;5.70;1.00;;;;;;5033978;28;19946;-86
2022/09/22 04:13:34;;;;;;;;;;;5.70;1.00;;;;;;5034295;28;20353;-87
2022/09/22 04:16:34;;;;;;;;;;;5.70;1.00;;;;;;5038257;28;19983;-88
2022/09/22 04:46:19;;;;;;;;;;;5.60;1.00;;;;;;4910453;29;19930;-89
2022/09/22 04:48:55;;;;;;;;;;;5.60;1.00;;;;;;4970144;28;19928;-85
2022/09/22 04:54:53;;;;;;;;;;;;;;;;;;;;;
2022/09/22 05:21:46;;;;;;;;;;;6.20;1.00;;;;;;4886027;29;20201;-87
2022/09/22 05:24:24;;;;;;;22.60;19.40;;;6.20;1.00;;;;;;4860980;29;20621;-88
2022/09/22 05:51:57;;;;;;;;;;;12.40;99.90;;;;;;4885386;29;20201;-87
2022/09/22 05:54:47;;;;;;;;;;;13.70;99.90;;;;;;4919177;29;20445;-89
2022/09/22 05:58:01;;;;;;;10.82;10.02;;;15.00;99.90;;;;;;4919270;29;20431;-85
2022/09/22 06:00:57;;;;;;;;;;;16.50;1.00;;;;;;4847448;29;20190;-91
2022/09/22 06:03:40;;;;;;;;;;;;;;;;;;;;;
2022/09/22 06:09:51;;;;;;;;;;;;;;;;;;;;;
2022/09/22 06:22:23;;;;;;;88.95;30.02;;;20.80;1.00;;;;;;4814043;29;20648;-88
2022/09/22 06:31:43;;;;;;;;;;;;;;;;;;;;;
2022/09/22 06:35:04;;;;;;;68.97;27.52;;;21.80;1.00;;;;;;4947172;29;20221;-90
2022/09/22 07:00:40;;;;;;;;;;;;;;;;;;;;;
2022/09/22 07:03:57;;;;;;;;;;;;;;;;;;;;;
2022/09/22 07:06:51;;;;;;;82.68;29.25;;;24.40;1.00;;;;;;4969292;28;20642;-91
2022/09/22 07:09:54;;;;;;;77.68;28.65;;;24.70;1.00;;;;;;4966365;28;20207;-92
2022/09/22 07:13:16;;;;;;;;;;;;;;;;;;;;;
2022/09/22 07:16:51;;;;;;;;;;;;;;;;;;;;;
2022/09/22 07:23:07;;;;;;;;;;;26.60;1.00;;;;;;4822674;29;19976;-91
2022/09/22 07:26:03;;;;;;;;;;;27.30;1.00;;;;;;4867771;29;19996;-92
2022/09/22 07:29:07;;;;;;;106.97;32.00;;;27.30;1.00;;;;;;4868349;29;20101;-90
2022/09/22 07:34:48;;;;;;;113.10;32.53;;;27.70;1.00;;;;;;4924139;29;20241;-88
2022/09/22 07:38:07;;;;;;;113.90;32.97;;;27.80;1.00;;;;;;4924950;29;20232;-88
2022/09/22 07:41:41;;;;;;;;;;;;;;;;;;;;;
2022/09/22 08:05:16;;;;;;;109.55;31.80;;;27.50;1.00;;;;;;4824541;29;20294;-89
2022/09/22 08:08:39;;;;;;;;;;;;;;;;;;;;;
2022/09/22 08:18:26;;;;;;;96.07;30.35;;;26.80;1.00;;;;;;4835044;29;20681;-91
2022/09/22 08:28:05;;;;;;;94.78;30.83;;;26.50;1.00;;;;;;4869961;29;20218;-91
2022/09/22 08:34:54;;;;;;;;;;;;;;;;;;;;;
2022/09/22 09:04:42;;;;;;;;;;;;;;;;;;;;;
2022/09/22 09:07:59;;;;;;;107.28;31.67;;;25.60;1.00;;;;;;4838925;29;20229;-92
2022/09/22 10:17:40;;;;;;;;;;;;;;;;;;;;;
2022/09/22 13:59:48;;;;;;;23.23;16.50;;;17.60;1.00;;;;;;5749471;25;20199;-90
2022/09/22 14:02:41;;;;;;;21.75;15.98;;;17.50;1.00;;;;;;5767151;24;20720;-89
2022/09/22 14:05:49;;;;;;;;;;;;;;;;;;;;;
2022/09/22 14:11:48;;;;;;;16.42;13.77;;;17.20;1.00;;;;;;5814329;24;20471;-88
2022/09/22 14:14:51;;;;;;;15.02;13.35;;;17.00;1.00;;;;;;5844479;24;20705;-90
2022/09/22 14:17:23;;;;;;;18.20;14.57;;;16.90;1.00;;;;;;5857836;24;20184;-87
2022/09/22 14:19:56;;;;;;;17.48;14.30;;;16.80;1.00;;;;;;5948382;24;20540;-88
2022/09/22 14:22:25;;;;;;;16.55;13.93;;;16.80;1.00;;;;;;5953302;24;20485;-88
2022/09/22 14:24:55;;;;;;;16.50;13.95;;;16.70;1.00;;;;;;5953488;24;20169;-88
2022/09/22 14:27:27;;;;;;;19.70;15.20;;;16.70;1.00;;;;;;6009122;23;20165;-86
2022/09/22 14:29:56;;;;;;;21.98;15.88;;;16.60;1.00;;;;;;6009027;23;20173;-88
2022/09/22 14:32:32;;;;;;;19.83;15.10;;;16.60;1.00;;;;;;6008720;23;20169;-87
2022/09/22 14:35:03;;;;;;;21.38;15.80;;;16.60;1.00;;;;;;6008870;23;20157;-87
2022/09/22 14:37:33;;;;;;;24.63;16.90;;;16.50;1.00;;;;;;6008327;23;20169;-88
2022/09/22 14:40:04;;;;;;;24.63;16.88;;;16.50;1.00;;;;;;6010982;23;20181;-86
2022/09/22 14:42:33;;;;;;;29.70;18.10;;;16.40;1.00;;;;;;6126054;23;20155;-87
2022/09/22 14:45:20;;;;;;;28.13;17.90;;;16.30;1.00;;;;;;6126553;23;20486;-89
2022/09/22 14:48:09;;;;;;;22.23;16.10;;;16.30;1.00;;;;;;6126488;23;20166;-88
2022/09/22 14:50:39;;;;;;;20.85;15.55;;;16.20;1.00;;;;;;6127002;23;20151;-88
2022/09/22 14:53:16;;;;;;;24.73;16.90;;;16.20;1.00;;;;;;6127104;23;20237;-88
2022/09/22 14:55:47;;;;;;;24.45;16.73;;;16.10;1.00;;;;;;6126934;23;20158;-88
2022/09/22 14:58:17;;;;;;;23.63;16.35;;;16.10;1.00;;;;;;6126366;23;20512;-88
2022/09/22 15:03:42;;;;;;;21.17;15.55;;;16.00;1.00;;;;;;6126631;23;20154;-87
2022/09/22 15:06:11;;;;;;;21.58;15.70;;;15.90;1.00;;;;;;6126847;23;20159;-87
2022/09/22 15:08:40;;;;;;;23.33;16.17;;;15.90;1.00;;;;;;6126734;23;20226;-88
2022/09/22 15:11:08;;;;;;;29.02;18.25;;;15.80;1.00;;;;;;6126760;23;20163;-86
2022/09/22 15:13:39;;;;;;;21.67;15.70;;;15.80;1.00;;;;;;6126465;23;20177;-88
2022/09/22 15:16:27;;;;;;;23.35;16.25;;;15.70;1.00;;;;;;6125427;23;20185;-89
2022/09/22 15:18:55;;;;;;;23.67;16.40;;;15.70;1.00;;;;;;6132715;23;20300;-86
2022/09/22 15:21:28;;;;;;;23.67;16.40;;;15.70;1.00;;;;;;6125996;23;20163;-86
2022/09/22 15:23:57;;;;;;;23.42;16.25;;;15.70;1.00;;;;;;6126491;23;20151;-86
2022/09/22 15:26:26;;;;;;;25.05;16.83;;;15.60;1.00;;;;;;6125940;23;20219;-86
2022/09/22 15:28:55;;;;;;;25.02;16.90;;;15.60;1.00;;;;;;6126356;23;20598;-87
2022/09/22 15:31:25;;;;;;;27.35;17.40;;;15.50;1.00;;;;;;6126549;23;20178;-88
2022/09/22 15:33:52;;;;;;;29.38;18.15;;;15.50;1.00;;;;;;6125557;23;20158;-87
2022/09/22 15:36:22;;;;;;;38.83;20.60;;;15.50;1.00;;;;;;6126260;23;20610;-87
2022/09/22 15:38:50;;;;;;;44.67;21.98;;;15.50;1.00;;;;;;6125992;23;20167;-86
2022/09/22 15:41:17;;;;;;;39.38;20.60;;;15.40;1.00;;;;;;6126255;23;20455;-86
2022/09/22 15:43:44;;;;;;;70.55;27.00;;;15.40;1.00;;;;;;6126134;23;20174;-86
2022/09/22 15:46:27;;;;;;;78.38;27.52;;;15.40;1.00;;;;;;6126363;23;20167;-86
2022/09/22 15:48:57;;;;;;;75.95;27.63;;;15.40;1.00;;;;;;6126436;23;20190;-88
2022/09/22 15:51:27;;;;;;;64.00;25.55;;;15.30;1.00;;;;;;6126248;23;20159;-86
2022/09/22 15:53:54;;;;;;;25.67;17.05;;;15.30;1.00;;;;;;6133760;23;20241;-87
2022/09/22 15:56:27;;;;;;;24.00;16.52;;;15.30;1.00;;;;;;6155081;23;20189;-86
2022/09/22 15:58:57;;;;;;;20.98;15.35;;;15.20;1.00;;;;;;6155173;23;20620;-87
2022/09/22 16:01:25;;;;;;;21.67;15.60;;;15.20;1.00;;;;;;6154938;23;20249;-87
2022/09/22 16:03:53;;;;;;;20.25;15.05;;;15.10;1.00;;;;;;6154800;23;20158;-87
2022/09/22 16:06:20;;;;;;;19.90;14.98;;;15.10;1.00;;;;;;6155327;23;20665;-87
2022/09/22 16:08:51;;;;;;;20.52;15.05;;;15.00;1.00;;;;;;6154912;23;20161;-88
2022/09/22 16:11:22;;;;;;;24.15;16.60;;;15.00;1.00;;;;;;6155053;23;20185;-86
2022/09/22 16:13:49;;;;;;;22.40;15.90;;;14.90;1.00;;;;;;6155477;23;20207;-87
2022/09/22 16:16:17;;;;;;;22.60;15.95;;;14.90;1.00;;;;;;6155010;23;20461;-88
2022/09/22 16:18:45;;;;;;;22.55;15.80;;;14.70;1.00;;;;;;6154412;23;20170;-86
2022/09/22 16:21:20;;;;;;;22.55;15.80;;;14.70;1.00;;;;;;6153726;23;20170;-88
2022/09/22 16:23:49;;;;;;;20.48;15.18;;;14.50;1.00;;;;;;6153784;23;20158;-87
2022/09/22 16:26:16;;;;;;;20.50;14.93;;;14.50;1.00;;;;;;6154003;23;20225;-88
2022/09/22 16:28:44;;;;;;;20.50;15.02;;;14.40;1.00;;;;;;6153700;23;20166;-88
2022/09/22 16:31:12;;;;;;;22.85;15.88;;;14.40;1.00;;;;;;6155044;23;20478;-88
2022/09/22 16:33:39;;;;;;;24.30;16.48;;;14.30;1.00;;;;;;6155062;23;20169;-88
2022/09/22 16:36:06;;;;;;;21.70;15.57;;;14.20;1.00;;;;;;6154374;23;20193;-89
2022/09/22 16:38:34;;;;;;;20.75;15.32;;;14.10;1.00;;;;;;6154771;23;20652;-87
2022/09/22 16:41:03;;;;;;;20.83;15.27;;;14.10;1.00;;;;;;6155212;23;20478;-88
2022/09/22 16:43:31;;;;;;;18.90;14.45;;;14.00;1.00;;;;;;6155042;23;20526;-88
2022/09/22 16:48:43;;;;;;;14.57;12.93;;;13.80;1.00;;;;;;6155019;23;20165;-88
2022/09/22 16:51:14;;;;;;;13.88;12.48;;;13.70;1.00;;;;;;6154505;23;20221;-87
2022/09/22 16:53:42;;;;;;;14.45;12.95;;;13.60;1.00;;;;;;6154764;23;20207;-87
2022/09/22 16:56:10;;;;;;;14.05;12.63;;;13.60;1.00;;;;;;6154839;23;20157;-87
2022/09/22 16:58:37;;;;;;;13.95;12.60;;;13.50;1.00;;;;;;6155227;23;20166;-88
2022/09/22 17:01:05;;;;;;;12.88;11.70;;;13.30;1.00;;;;;;6155164;23;20182;-86
2022/09/22 17:03:32;;;;;;;12.15;11.15;;;13.20;1.00;;;;;;6154170;23;20162;-86
2022/09/22 17:06:04;;;;;;;;;;;13.10;1.00;;;;;;6155304;23;20391;-85
2022/09/22 17:08:31;;;;;;;13.40;12.30;;;12.90;1.00;;;;;;6154950;23;20030;-86
2022/09/22 17:10:58;;;;;;;12.05;11.13;;;12.80;1.00;;;;;;6154617;23;20170;-86
2022/09/22 17:13:27;;;;;;;12.20;11.25;;;12.70;1.00;;;;;;6154866;23;20077;-85
2022/09/22 17:16:06;;;;;;;13.20;12.10;;;12.50;1.00;;;;;;6154505;23;20169;-85
2022/09/22 17:18:35;;;;;;;;;;;12.40;1.00;;;;;;6155041;23;20233;-87
2022/09/22 17:21:02;;;;;;;19.65;14.65;;;12.20;1.00;;;;;;6153388;23;20776;-86
2022/09/22 17:23:29;;;;;;;12.60;11.50;;;12.20;1.00;;;;;;6154608;23;20469;-88
2022/09/22 17:25:57;;;;;;;;;;;12.00;1.00;;;;;;6154964;23;20225;-87
2022/09/22 17:28:24;;;;;;;26.25;16.58;;;11.90;1.00;;;;;;6153480;23;20894;-87
2022/09/22 17:30:57;;;;;;;12.27;11.25;;;11.70;1.00;;;;;;6154063;23;20173;-85
2022/09/22 17:33:25;;;;;;;11.48;10.57;;;11.60;1.00;;;;;;6154683;23;20691;-87
2022/09/22 17:36:02;;;;;;;12.25;11.30;;;11.50;1.00;;;;;;6154866;23;20165;-86
2022/09/22 17:38:34;;;;;;;;;;;11.40;1.00;;;;;;6153642;23;20603;-84
2022/09/22 17:41:07;;;;;;;13.57;12.27;;;11.30;1.00;;;;;;6151069;23;20431;-85
2022/09/22 17:43:34;;;;;;;;;;;11.10;1.00;;;;;;6154872;23;20166;-84
2022/09/22 17:46:03;;;;;;;9.68;8.98;;;11.10;1.00;;;;;;6153567;23;20434;-85
2022/09/22 17:57:04;;;;;;;;;;;10.60;1.00;;;;;;6156211;23;19976;-85
2022/09/22 17:59:31;;;;;;;;;;;10.60;1.00;;;;;;6156957;23;19913;-85
2022/09/22 18:01:59;;;;;;;;;;;10.50;1.00;;;;;;6156794;23;19991;-86
2022/09/22 18:04:26;;;;;;;;;;;10.40;1.00;;;;;;6156739;23;19919;-84
2022/09/22 18:06:53;;;;;;;;;;;10.30;1.00;;;;;;6156593;23;19912;-86
2022/09/22 18:09:20;;;;;;;;;;;10.30;1.00;;;;;;6155665;23;20323;-86
2022/09/22 18:11:47;;;;;;;;;;;10.20;1.00;;;;;;6155759;23;19924;-86
2022/09/22 18:14:14;;;;;;;;;;;10.20;1.00;;;;;;6156098;23;20346;-86
2022/09/22 18:16:42;;;;;;;;;;;10.10;1.00;;;;;;6154954;23;19921;-85
2022/09/22 18:19:11;;;;;;;;;;;10.00;1.00;;;;;;6154828;23;19959;-87
2022/09/22 18:21:43;;;;;;;0.17;0.17;;;10.00;1.00;;;;;;6154878;23;20386;-86
2022/09/22 18:24:12;;;;;;;;;;;9.90;1.00;;;;;;6155499;23;20213;-86
2022/09/22 18:26:41;;;;;;;;;;;9.80;1.00;;;;;;6154761;23;20287;-87
2022/09/22 18:29:08;;;;;;;;;;;9.80;1.00;;;;;;6155029;23;19996;-84
2022/09/22 18:31:36;;;;;;;7.77;7.27;;;9.60;1.00;;;;;;6153094;23;20845;-87
2022/09/22 18:34:06;;;;;;;;;;;9.60;1.00;;;;;;6154974;23;20604;-85
2022/09/22 18:36:35;;;;;;;0.40;0.40;;;9.50;1.00;;;;;;6154760;23;20430;-86
2022/09/22 18:39:02;;;;;;;;;;;9.50;1.00;;;;;;6155667;23;20170;-85
2022/09/22 18:41:28;;;;;;;;;;;9.40;1.00;;;;;;6154984;23;19919;-86
2022/09/22 18:43:55;;;;;;;;;;;9.30;1.00;;;;;;6154346;23;19923;-86
2022/09/22 18:46:22;;;;;;;;;;;9.30;1.00;;;;;;6155654;23;19912;-86
2022/09/22 18:48:52;;;;;;;;;;;9.30;1.00;;;;;;6156718;23;19916;-87
2022/09/22 18:51:19;;;;;;;;;;;9.30;1.00;;;;;;6156250;23;19912;-85
2022/09/22 18:53:48;;;;;;;;;;;9.20;1.00;;;;;;6155736;23;20359;-85
2022/09/22 18:56:17;;;;;;;;;;;9.20;1.00;;;;;;6155900;23;19923;-86
2022/09/22 18:58:43;;;;;;;;;;;9.10;1.00;;;;;;6156065;23;19912;-86
2022/09/22 19:01:12;;;;;;;;;;;9.00;1.00;;;;;;6155856;23;20268;-85
2022/09/22 19:03:40;;;;;;;0.00;0.00;;;9.00;1.00;;;;;;6155267;23;20445;-85
2022/09/22 19:06:07;;;;;;;;;;;9.00;1.00;;;;;;6155892;23;20608;-86
2022/09/22 19:08:33;;;;;;;;;;;8.90;1.00;;;;;;6155307;23;19991;-87
2022/09/22 19:11:02;;;;;;;;;;;8.90;1.00;;;;;;6156451;23;19912;-85
2022/09/22 19:13:29;;;;;;;;;;;8.90;1.00;;;;;;6156186;23;19967;-86
2022/09/22 19:15:56;;;;;;;;;;;8.80;1.00;;;;;;6156261;23;19920;-86
2022/09/22 19:18:23;;;;;;;;;;;8.80;1.00;;;;;;6155892;23;19919;-87
2022/09/22 19:20:50;;;;;;;;;;;8.70;1.00;;;;;;6155613;23;20244;-86
2022/09/22 19:23:17;;;;;;;;;;;8.70;1.00;;;;;;6155499;23;19919;-85
2022/09/22 19:25:44;;;;;;;;;;;8.60;1.00;;;;;;6155644;23;20346;-85
2022/09/22 19:28:13;;;;;;;10.02;9.27;;;8.60;1.00;;;;;;6154601;23;20886;-85
2022/09/22 19:30:40;;;;;;;;;;;8.50;1.00;;;;;;6156001;23;20189;-85
2022/09/22 19:33:07;;;;;;;;;;;8.50;1.00;;;;;;6156043;23;19972;-85
2022/09/22 19:35:34;;;;;;;11.15;10.25;;;8.50;1.00;;;;;;6154220;23;20375;-85
2022/09/22 19:38:02;;;;;;;3.70;3.50;;;8.40;1.00;;;;;;6155830;23;20170;-86
2022/09/22 19:40:29;;;;;;;;;;;8.40;1.00;;;;;;6156015;23;20166;-85
2022/09/22 19:43:00;;;;;;;13.65;12.35;;;8.30;1.00;;;;;;6153900;23;20709;-85
2022/09/22 19:45:29;;;;;;;13.10;11.90;;;8.20;1.00;;;;;;6155249;23;20576;-85
2022/09/22 19:47:57;;;;;;;14.18;12.60;;;8.20;1.00;;;;;;6155614;23;20564;-85
2022/09/22 19:50:24;;;;;;;18.70;14.20;;;8.20;1.00;;;;;;6154898;23;20190;-85
2022/09/22 19:52:51;;;;;;;21.70;15.43;;;8.10;1.00;;;;;;6155448;23;20225;-86
2022/09/22 19:55:19;;;;;;;23.70;16.33;;;8.10;1.00;;;;;;6155160;23;20198;-86
2022/09/22 19:57:47;;;;;;;20.42;15.98;;;8.10;1.00;;;;;;6155372;23;20193;-87
2022/09/22 20:00:17;;;;;;;19.65;15.43;;;8.00;1.00;;;;;;6155450;23;20601;-86
2022/09/22 20:02:45;;;;;;;18.52;15.02;;;8.10;1.00;;;;;;6155025;23;20202;-86
2022/09/22 20:05:19;;;;;;;17.55;14.90;;;8.20;1.00;;;;;;6155035;23;20162;-87
2022/09/22 20:07:46;;;;;;;16.70;14.50;;;8.20;1.00;;;;;;6155514;23;20188;-87
2022/09/22 20:10:14;;;;;;;18.30;15.13;;;8.20;1.00;;;;;;6154631;23;20185;-87
2022/09/22 20:12:41;;;;;;;17.83;14.70;;;8.20;1.00;;;;;;6155138;23;20249;-85
2022/09/22 20:15:08;;;;;;;17.35;14.70;;;8.10;1.00;;;;;;6154397;23;20482;-87
2022/09/22 20:17:35;;;;;;;16.77;14.68;;;8.20;1.00;;;;;;6155567;23;20162;-87
2022/09/22 20:20:05;;;;;;;16.30;14.50;;;8.10;1.00;;;;;;6154632;23;20166;-87
2022/09/22 20:22:32;;;;;;;15.73;13.75;;;8.00;1.00;;;;;;6154760;23;20175;-85
2022/09/22 20:25:00;;;;;;;16.92;14.75;;;8.00;1.00;;;;;;6155425;23;20523;-87
2022/09/22 20:27:30;;;;;;;20.65;15.85;;;7.90;1.00;;;;;;6154928;23;20569;-85
2022/09/22 20:29:57;;;;;;;16.88;14.10;;;7.80;1.00;;;;;;6155131;23;20229;-86
2022/09/22 20:32:25;;;;;;;17.50;14.38;;;7.80;1.00;;;;;;6154904;23;20201;-87
2022/09/22 20:34:53;;;;;;;18.95;15.55;;;7.70;1.00;;;;;;6154948;23;20170;-88
2022/09/22 20:37:23;;;;;;;15.52;13.88;;;7.70;1.00;;;;;;6155088;23;20166;-86
2022/09/22 20:39:50;;;;;;;13.38;12.15;;;7.70;1.00;;;;;;6155230;23;20200;-87
2022/09/22 20:42:17;;;;;;;13.43;12.13;;;7.60;1.00;;;;;;6154587;23;20178;-88
2022/09/22 20:44:45;;;;;;;12.88;11.73;;;7.70;1.00;;;;;;6156600;23;20166;-87
2022/09/22 20:47:14;;;;;;;14.88;13.48;;;7.70;1.00;;;;;;6157998;23;20478;-85
2022/09/22 20:49:42;;;;;;;14.68;13.27;;;7.80;1.00;;;;;;6156587;23;20596;-84
2022/09/22 20:52:13;;;;;;;13.90;12.60;;;7.80;1.00;;;;;;6154488;23;20190;-85
2022/09/22 20:54:41;;;;;;;13.00;11.80;;;7.80;1.00;;;;;;6154577;23;20224;-85
2022/09/22 20:57:09;;;;;;;12.88;11.73;;;7.80;1.00;;;;;;6128913;23;20169;-86
2022/09/22 20:59:36;;;;;;;13.63;12.32;;;7.70;1.00;;;;;;6154893;23;20237;-86
2022/09/22 21:02:03;;;;;;;14.10;12.77;;;7.70;1.00;;;;;;6155241;23;20173;-85
2022/09/22 21:04:31;;;;;;;14.05;12.73;;;7.70;1.00;;;;;;6154494;23;20166;-85
2022/09/22 21:06:58;;;;;;;12.35;11.25;;;7.70;1.00;;;;;;6154653;23;20567;-86
2022/09/22 21:12:12;;;;;;;9.60;8.80;;;7.60;1.00;;;;;;6154633;23;20201;-85
2022/09/22 21:14:41;;;;;;;15.10;13.70;;;7.60;1.00;;;;;;6154828;23;20244;-85
2022/09/22 21:17:07;;;;;;;;;;;7.50;1.00;;;;;;6155088;23;20166;-87
2022/09/22 21:19:35;;;;;;;14.63;13.10;;;7.50;1.00;;;;;;6153423;23;20735;-86
2022/09/22 21:22:03;;;;;;;4.82;4.55;;;7.40;1.00;;;;;;6154686;23;20681;-84
2022/09/22 21:24:30;;;;;;;;;;;7.40;1.00;;;;;;6155064;23;20224;-87
2022/09/22 21:26:57;;;;;;;14.68;13.18;;;7.40;1.00;;;;;;6153120;23;20437;-85
2022/09/22 21:29:25;;;;;;;;;;;7.30;1.00;;;;;;6154757;23;20197;-85
2022/09/22 21:31:52;;;;;;;20.52;15.20;;;7.30;1.00;;;;;;6152678;23;20386;-87
2022/09/22 21:34:19;;;;;;;15.32;13.80;;;7.30;1.00;;;;;;6154807;23;20814;-87
2022/09/22 21:36:46;;;;;;;16.40;14.80;;;7.30;1.00;;;;;;6155098;23;20166;-84
2022/09/22 21:39:13;;;;;;;;;;;7.30;1.00;;;;;;6155258;23;20237;-84
2022/09/22 21:41:41;;;;;;;30.17;17.35;;;7.30;1.00;;;;;;6152948;23;20379;-88
2022/09/22 21:44:08;;;;;;;30.77;17.93;;;7.20;1.00;;;;;;6154513;23;20216;-85
2022/09/22 21:46:40;;;;;;;28.63;17.37;;;7.20;1.00;;;;;;6155047;23;20212;-87
2022/09/22 21:49:08;;;;;;;24.83;16.40;;;7.20;1.00;;;;;;6154950;23;20169;-86
2022/09/22 21:51:40;;;;;;;28.37;17.20;;;7.20;1.00;;;;;;6154851;23;20272;-85
2022/09/22 21:54:07;;;;;;;28.70;17.17;;;7.10;1.00;;;;;;6154476;23;20194;-86
2022/09/22 21:56:35;;;;;;;27.97;17.00;;;7.00;1.00;;;;;;6154675;23;20330;-84
2022/09/22 21:59:02;;;;;;;28.83;17.30;;;6.90;1.00;;;;;;6154530;23;20484;-85
2022/09/22 22:01:31;;;;;;;27.50;16.57;;;6.90;1.00;;;;;;6154550;23;20170;-85
2022/09/22 22:04:01;;;;;;;16.07;13.57;;;6.90;1.00;;;;;;6154794;23;20581;-84
2022/09/22 22:06:28;;;;;;;;;;;6.80;1.00;;;;;;6155141;23;20166;-86
2022/09/22 22:08:59;;;;;;;12.68;11.52;;;6.70;1.00;;;;;;6154852;23;20179;-85
2022/09/22 22:11:28;;;;;;;14.30;12.90;;;6.70;1.00;;;;;;6154619;23;20182;-86
2022/09/22 22:13:57;;;;;;;16.65;15.00;;;6.70;1.00;;;;;;6155315;23;20162;-87
2022/09/22 22:16:26;;;;;;;17.50;15.70;;;6.60;1.00;;;;;;6154933;23;20252;-86
2022/09/22 22:18:53;;;;;;;17.40;15.60;;;6.50;1.00;;;;;;6155064;23;20229;-86
2022/09/22 22:21:24;;;;;;;9.90;9.07;;;6.50;1.00;;;;;;6154950;23;20169;-83